sensor_id;sensor_type;location;lat;lon;timestamp;P1;durP1;ratioP1;P2;durP2;ratioP2
12721;SDS011;6425;50.316;8.114;2024-02-21T00:00:00;16.1;;;6.5;;
12721;SDS011;6425;50.316;8.114;2024-02-21T00:03:00;17.4;;;6.4;;
12721;SDS011;6425;50.316;8.114;2024-02-21T00:06:00;17.4;;;6.4;;
12721;SDS011;6425;50.316;8.114;2024-02-21T00:09:00;16.7;;;5.6;;
12721;SDS011;6425;50.316;8.114;2024-02-21T00:12:00;16.7;;;5.6;;
12721;SDS011;6425;50.316;8.114;2024-02-21T00:15:00;17.4;;;6.2;;
12721;SDS011;6425;50.316;8.114;2024-02-21T00:18:00;17.4;;;6.7;;
12721;SDS011;6425;50.316;8.114;2024-02-21T00:21:00;17.4;;;6.7;;
12721;SDS011;6425;50.316;8.114;2024-02-21T00:24:00;14.8;;;5.6;;
12721;SDS011;6425;50.316;8.114;2024-02-21T00:27:00;14.8;;;5.6;;
12721;SDS011;6425;50.316;8.114;2024-02-21T00:30:00;15.2;;;6;;
12721;SDS011;6425;50.316;8.114;2024-02-21T00:33:00;14.3;;;6.2;;
12721;SDS011;6425;50.316;8.114;2024-02-21T00:36:00;14.3;;;6.2;;
12721;SDS011;6425;50.316;8.114;2024-02-21T00:39:00;17.5;;;5.6;;
12721;SDS011;6425;50.316;8.114;2024-02-21T00:42:00;17.5;;;5.6;;
12721;SDS011;6425;50.316;8.114;2024-02-21T00:45:00;14.7;;;5.8;;
12721;SDS011;6425;50.316;8.114;2024-02-21T00:48:00;18.2;;;6.2;;
12721;SDS011;6425;50.316;8.114;2024-02-21T00:51:00;18.2;;;6.2;;
12721;SDS011;6425;50.316;8.114;2024-02-21T00:54:00;13.7;;;5.6;;
12721;SDS011;6425;50.316;8.114;2024-02-21T00:57:00;12.8;;;5.5;;
12721;SDS011;6425;50.316;8.114;2024-02-21T01:00:00;12.8;;;5.5;;
12721;SDS011;6425;50.316;8.114;2024-02-21T01:03:00;17.2;;;6.1;;
12721;SDS011;6425;50.316;8.114;2024-02-21T01:06:00;17.2;;;6.1;;
12721;SDS011;6425;50.316;8.114;2024-02-21T01:09:00;15.7;;;5.6;;
12721;SDS011;6425;50.316;8.114;2024-02-21T01:12:00;12.7;;;5.3;;
12721;SDS011;6425;50.316;8.114;2024-02-21T01:15:01;12.7;;;5.3;;
12721;SDS011;6425;50.316;8.114;2024-02-21T01:18:00;13.9;;;5.7;;
12721;SDS011;6425;50.316;8.114;2024-02-21T01:21:00;13.9;;;5.7;;
12721;SDS011;6425;50.316;8.114;2024-02-21T01:24:00;14.1;;;5.1;;
12721;SDS011;6425;50.316;8.114;2024-02-21T01:27:00;15.1;;;5.6;;
12721;SDS011;6425;50.316;8.114;2024-02-21T01:30:00;15.1;;;5.6;;
12721;SDS011;6425;50.316;8.114;2024-02-21T01:33:00;15;;;5;;
12721;SDS011;6425;50.316;8.114;2024-02-21T01:36:00;15;;;5;;
12721;SDS011;6425;50.316;8.114;2024-02-21T01:39:00;13.9;;;5.1;;
12721;SDS011;6425;50.316;8.114;2024-02-21T01:42:00;12.8;;;5.2;;
12721;SDS011;6425;50.316;8.114;2024-02-21T01:45:00;12.8;;;5.2;;
12721;SDS011;6425;50.316;8.114;2024-02-21T01:48:00;11.1;;;4.8;;
12721;SDS011;6425;50.316;8.114;2024-02-21T01:51:00;11.1;;;4.8;;
12721;SDS011;6425;50.316;8.114;2024-02-21T01:54:00;10.5;;;5.1;;
12721;SDS011;6425;50.316;8.114;2024-02-21T01:57:00;13.3;;;5.4;;
12721;SDS011;6425;50.316;8.114;2024-02-21T02:00:00;13.3;;;5.4;;
12721;SDS011;6425;50.316;8.114;2024-02-21T02:03:00;11.7;;;4.5;;
12721;SDS011;6425;50.316;8.114;2024-02-21T02:06:00;11.7;;;4.5;;
12721;SDS011;6425;50.316;8.114;2024-02-21T02:09:00;15;;;5.1;;
12721;SDS011;6425;50.316;8.114;2024-02-21T02:12:00;15;;;4.9;;
12721;SDS011;6425;50.316;8.114;2024-02-21T02:15:01;15;;;4.9;;
12721;SDS011;6425;50.316;8.114;2024-02-21T02:18:00;10.4;;;4.1;;
12721;SDS011;6425;50.316;8.114;2024-02-21T02:21:00;10.4;;;4.1;;
12721;SDS011;6425;50.316;8.114;2024-02-21T02:24:00;10.8;;;4.4;;
12721;SDS011;6425;50.316;8.114;2024-02-21T02:27:00;13.2;;;5.2;;
12721;SDS011;6425;50.316;8.114;2024-02-21T02:30:00;13.2;;;5.2;;
12721;SDS011;6425;50.316;8.114;2024-02-21T02:33:00;13.1;;;5.5;;
12721;SDS011;6425;50.316;8.114;2024-02-21T02:36:00;13.1;;;5.5;;
12721;SDS011;6425;50.316;8.114;2024-02-21T02:39:00;14.7;;;4.7;;
12721;SDS011;6425;50.316;8.114;2024-02-21T02:42:00;16.3;;;5.3;;
12721;SDS011;6425;50.316;8.114;2024-02-21T02:45:00;16.3;;;5.3;;
12721;SDS011;6425;50.316;8.114;2024-02-21T02:48:00;15.8;;;5.4;;
12721;SDS011;6425;50.316;8.114;2024-02-21T02:51:00;15.8;;;5.4;;
12721;SDS011;6425;50.316;8.114;2024-02-21T02:54:00;12;;;4.5;;
12721;SDS011;6425;50.316;8.114;2024-02-21T02:57:00;12.9;;;5;;
12721;SDS011;6425;50.316;8.114;2024-02-21T03:00:00;12.9;;;5;;
12721;SDS011;6425;50.316;8.114;2024-02-21T03:03:02;13.1;;;4.6;;
12721;SDS011;6425;50.316;8.114;2024-02-21T03:06:00;13.1;;;4.6;;
12721;SDS011;6425;50.316;8.114;2024-02-21T03:09:00;13.4;;;5.1;;
12721;SDS011;6425;50.316;8.114;2024-02-21T03:12:00;13.9;;;4.7;;
12721;SDS011;6425;50.316;8.114;2024-02-21T03:15:00;13.9;;;4.7;;
12721;SDS011;6425;50.316;8.114;2024-02-21T03:18:00;13.4;;;4.8;;
12721;SDS011;6425;50.316;8.114;2024-02-21T03:21:00;13.4;;;4.8;;
12721;SDS011;6425;50.316;8.114;2024-02-21T03:24:00;11.1;;;4.8;;
12721;SDS011;6425;50.316;8.114;2024-02-21T03:27:00;12.1;;;5.2;;
12721;SDS011;6425;50.316;8.114;2024-02-21T03:30:00;12.1;;;5.2;;
12721;SDS011;6425;50.316;8.114;2024-02-21T03:33:00;13.9;;;4.5;;
12721;SDS011;6425;50.316;8.114;2024-02-21T03:36:00;14.6;;;5.2;;
12721;SDS011;6425;50.316;8.114;2024-02-21T03:39:00;14.6;;;5.2;;
12721;SDS011;6425;50.316;8.114;2024-02-21T03:42:00;16.2;;;5.4;;
12721;SDS011;6425;50.316;8.114;2024-02-21T03:45:00;16.2;;;5.4;;
12721;SDS011;6425;50.316;8.114;2024-02-21T03:48:00;16.6;;;5.6;;
12721;SDS011;6425;50.316;8.114;2024-02-21T03:51:00;14.1;;;5.3;;
12721;SDS011;6425;50.316;8.114;2024-02-21T03:54:00;14.1;;;5.3;;
12721;SDS011;6425;50.316;8.114;2024-02-21T03:57:00;16;;;5.1;;
12721;SDS011;6425;50.316;8.114;2024-02-21T04:00:00;16;;;5.1;;
12721;SDS011;6425;50.316;8.114;2024-02-21T04:03:00;17;;;5.6;;
12721;SDS011;6425;50.316;8.114;2024-02-21T04:06:00;14.7;;;5;;
12721;SDS011;6425;50.316;8.114;2024-02-21T04:09:00;14.7;;;5;;
12721;SDS011;6425;50.316;8.114;2024-02-21T04:12:00;12.8;;;4.8;;
12721;SDS011;6425;50.316;8.114;2024-02-21T04:15:00;12.8;;;4.8;;
12721;SDS011;6425;50.316;8.114;2024-02-21T04:18:00;12.3;;;5;;
12721;SDS011;6425;50.316;8.114;2024-02-21T04:21:00;16;;;5.1;;
12721;SDS011;6425;50.316;8.114;2024-02-21T04:24:00;16;;;5.1;;
12721;SDS011;6425;50.316;8.114;2024-02-21T04:27:00;18.1;;;5;;
12721;SDS011;6425;50.316;8.114;2024-02-21T04:30:00;18.1;;;5;;
12721;SDS011;6425;50.316;8.114;2024-02-21T04:33:00;12.9;;;4.9;;
12721;SDS011;6425;50.316;8.114;2024-02-21T04:36:00;13;;;5;;
12721;SDS011;6425;50.316;8.114;2024-02-21T04:39:01;13;;;5;;
12721;SDS011;6425;50.316;8.114;2024-02-21T04:42:00;13.9;;;4.9;;
12721;SDS011;6425;50.316;8.114;2024-02-21T04:45:00;13.9;;;4.9;;
12721;SDS011;6425;50.316;8.114;2024-02-21T04:48:00;14.7;;;5.1;;
12721;SDS011;6425;50.316;8.114;2024-02-21T04:51:00;15;;;5;;
12721;SDS011;6425;50.316;8.114;2024-02-21T04:54:00;15;;;5;;
12721;SDS011;6425;50.316;8.114;2024-02-21T04:57:00;13;;;4.7;;
12721;SDS011;6425;50.316;8.114;2024-02-21T05:00:00;13;;;4.7;;
12721;SDS011;6425;50.316;8.114;2024-02-21T05:03:00;13.5;;;5.2;;
12721;SDS011;6425;50.316;8.114;2024-02-21T05:06:00;14.6;;;4.1;;
12721;SDS011;6425;50.316;8.114;2024-02-21T05:09:00;14.6;;;4.1;;
12721;SDS011;6425;50.316;8.114;2024-02-21T05:12:00;14.1;;;4.1;;
12721;SDS011;6425;50.316;8.114;2024-02-21T05:15:00;14.1;;;4.1;;
12721;SDS011;6425;50.316;8.114;2024-02-21T05:18:00;11.4;;;3.8;;
12721;SDS011;6425;50.316;8.114;2024-02-21T05:21:00;12.8;;;3.7;;
12721;SDS011;6425;50.316;8.114;2024-02-21T05:24:00;12.8;;;3.7;;
12721;SDS011;6425;50.316;8.114;2024-02-21T05:27:00;11.4;;;4.5;;
12721;SDS011;6425;50.316;8.114;2024-02-21T05:30:00;11.4;;;4.5;;
12721;SDS011;6425;50.316;8.114;2024-02-21T05:33:03;13;;;4.1;;
12721;SDS011;6425;50.316;8.114;2024-02-21T05:36:00;11.9;;;3.9;;
12721;SDS011;6425;50.316;8.114;2024-02-21T05:39:00;11.9;;;3.9;;
12721;SDS011;6425;50.316;8.114;2024-02-21T05:42:00;10.8;;;3.6;;
12721;SDS011;6425;50.316;8.114;2024-02-21T05:45:00;10.8;;;3.6;;
12721;SDS011;6425;50.316;8.114;2024-02-21T05:48:00;13.7;;;3.9;;
12721;SDS011;6425;50.316;8.114;2024-02-21T05:51:01;13.2;;;3.9;;
12721;SDS011;6425;50.316;8.114;2024-02-21T05:54:00;13.2;;;3.9;;
12721;SDS011;6425;50.316;8.114;2024-02-21T05:57:00;12.1;;;4;;
12721;SDS011;6425;50.316;8.114;2024-02-21T06:00:00;12.1;;;4;;
12721;SDS011;6425;50.316;8.114;2024-02-21T06:03:00;13.1;;;3.8;;
12721;SDS011;6425;50.316;8.114;2024-02-21T06:06:00;10.2;;;3.6;;
12721;SDS011;6425;50.316;8.114;2024-02-21T06:09:00;10.2;;;3.6;;
12721;SDS011;6425;50.316;8.114;2024-02-21T06:12:00;16.6;;;3.9;;
12721;SDS011;6425;50.316;8.114;2024-02-21T06:15:01;16.6;;;3.9;;
12721;SDS011;6425;50.316;8.114;2024-02-21T06:18:00;14.5;;;3.8;;
12721;SDS011;6425;50.316;8.114;2024-02-21T06:21:00;12.9;;;3.9;;
12721;SDS011;6425;50.316;8.114;2024-02-21T06:24:00;12.9;;;3.9;;
12721;SDS011;6425;50.316;8.114;2024-02-21T06:27:00;9.8;;;3.4;;
12721;SDS011;6425;50.316;8.114;2024-02-21T06:30:00;9.8;;;3.4;;
12721;SDS011;6425;50.316;8.114;2024-02-21T06:33:00;9.2;;;3.3;;
12721;SDS011;6425;50.316;8.114;2024-02-21T06:36:00;10.1;;;3.1;;
12721;SDS011;6425;50.316;8.114;2024-02-21T06:39:00;10.1;;;3.1;;
12721;SDS011;6425;50.316;8.114;2024-02-21T06:42:00;9.6;;;2.9;;
12721;SDS011;6425;50.316;8.114;2024-02-21T06:45:00;7.8;;;2.7;;
12721;SDS011;6425;50.316;8.114;2024-02-21T06:48:00;7.8;;;2.7;;
12721;SDS011;6425;50.316;8.114;2024-02-21T06:51:00;11.9;;;3;;
12721;SDS011;6425;50.316;8.114;2024-02-21T06:54:00;11.9;;;3;;
12721;SDS011;6425;50.316;8.114;2024-02-21T06:57:00;9.8;;;3.3;;
12721;SDS011;6425;50.316;8.114;2024-02-21T07:00:00;9.5;;;3.5;;
12721;SDS011;6425;50.316;8.114;2024-02-21T07:03:00;9.5;;;3.5;;
12721;SDS011;6425;50.316;8.114;2024-02-21T07:06:00;13.8;;;3.6;;
12721;SDS011;6425;50.316;8.114;2024-02-21T07:09:00;13.8;;;3.6;;
12721;SDS011;6425;50.316;8.114;2024-02-21T07:12:00;8.5;;;3.1;;
12721;SDS011;6425;50.316;8.114;2024-02-21T07:15:00;9;;;3.5;;
12721;SDS011;6425;50.316;8.114;2024-02-21T07:18:00;9;;;3.5;;
12721;SDS011;6425;50.316;8.114;2024-02-21T07:21:00;15.4;;;4;;
12721;SDS011;6425;50.316;8.114;2024-02-21T07:24:00;15.4;;;4;;
12721;SDS011;6425;50.316;8.114;2024-02-21T07:27:01;10.3;;;2.9;;
12721;SDS011;6425;50.316;8.114;2024-02-21T07:30:00;10.5;;;3.4;;
12721;SDS011;6425;50.316;8.114;2024-02-21T07:33:00;10.5;;;3.4;;
12721;SDS011;6425;50.316;8.114;2024-02-21T07:36:00;10.8;;;3;;
12721;SDS011;6425;50.316;8.114;2024-02-21T07:39:00;10.8;;;3;;
12721;SDS011;6425;50.316;8.114;2024-02-21T07:42:00;9.8;;;3.7;;
12721;SDS011;6425;50.316;8.114;2024-02-21T07:45:00;10.1;;;3.8;;
12721;SDS011;6425;50.316;8.114;2024-02-21T07:48:00;10.1;;;3.8;;
12721;SDS011;6425;50.316;8.114;2024-02-21T07:51:00;11.2;;;3.5;;
12721;SDS011;6425;50.316;8.114;2024-02-21T07:54:00;11.2;;;3.5;;
12721;SDS011;6425;50.316;8.114;2024-02-21T07:57:00;9.7;;;3.5;;
12721;SDS011;6425;50.316;8.114;2024-02-21T08:00:00;9.8;;;3.5;;
12721;SDS011;6425;50.316;8.114;2024-02-21T08:03:00;9.8;;;3.5;;
12721;SDS011;6425;50.316;8.114;2024-02-21T08:06:00;11.6;;;3.3;;
12721;SDS011;6425;50.316;8.114;2024-02-21T08:09:00;11.6;;;3.3;;
12721;SDS011;6425;50.316;8.114;2024-02-21T08:12:00;10.6;;;4.1;;
12721;SDS011;6425;50.316;8.114;2024-02-21T08:15:00;10.5;;;3.6;;
12721;SDS011;6425;50.316;8.114;2024-02-21T08:18:00;10.5;;;3.6;;
12721;SDS011;6425;50.316;8.114;2024-02-21T08:21:00;7.8;;;3.2;;
12721;SDS011;6425;50.316;8.114;2024-02-21T08:24:00;7.8;;;3.2;;
12721;SDS011;6425;50.316;8.114;2024-02-21T08:27:01;9.4;;;3.3;;
12721;SDS011;6425;50.316;8.114;2024-02-21T08:30:00;9.4;;;3.8;;
12721;SDS011;6425;50.316;8.114;2024-02-21T08:33:00;9.4;;;3.8;;
12721;SDS011;6425;50.316;8.114;2024-02-21T08:36:00;9.9;;;3.6;;
12721;SDS011;6425;50.316;8.114;2024-02-21T08:39:02;9.9;;;3.6;;
12721;SDS011;6425;50.316;8.114;2024-02-21T08:42:00;10.8;;;3.6;;
12721;SDS011;6425;50.316;8.114;2024-02-21T08:45:00;9.2;;;3.4;;
12721;SDS011;6425;50.316;8.114;2024-02-21T08:48:00;9.2;;;3.4;;
12721;SDS011;6425;50.316;8.114;2024-02-21T08:51:00;9;;;3.8;;
12721;SDS011;6425;50.316;8.114;2024-02-21T08:54:00;9;;;3.8;;
12721;SDS011;6425;50.316;8.114;2024-02-21T08:57:00;10;;;4.3;;
12721;SDS011;6425;50.316;8.114;2024-02-21T09:00:00;10.7;;;4.2;;
12721;SDS011;6425;50.316;8.114;2024-02-21T09:03:00;10.7;;;4.2;;
12721;SDS011;6425;50.316;8.114;2024-02-21T09:06:00;14.3;;;4.4;;
12721;SDS011;6425;50.316;8.114;2024-02-21T09:09:00;14.3;;;4.4;;
12721;SDS011;6425;50.316;8.114;2024-02-21T09:12:00;10.9;;;4.2;;
12721;SDS011;6425;50.316;8.114;2024-02-21T09:15:00;11.9;;;3.6;;
12721;SDS011;6425;50.316;8.114;2024-02-21T09:18:00;11.9;;;3.6;;
12721;SDS011;6425;50.316;8.114;2024-02-21T09:21:00;10.9;;;3.9;;
12721;SDS011;6425;50.316;8.114;2024-02-21T09:24:00;10.9;;;3.9;;
12721;SDS011;6425;50.316;8.114;2024-02-21T09:27:00;11.1;;;3.6;;
12721;SDS011;6425;50.316;8.114;2024-02-21T09:30:00;11.7;;;4.1;;
12721;SDS011;6425;50.316;8.114;2024-02-21T09:33:00;11.7;;;4.1;;
12721;SDS011;6425;50.316;8.114;2024-02-21T09:36:00;12.4;;;4;;
12721;SDS011;6425;50.316;8.114;2024-02-21T09:39:00;12.1;;;4.1;;
12721;SDS011;6425;50.316;8.114;2024-02-21T09:42:05;12.1;;;4.1;;
12721;SDS011;6425;50.316;8.114;2024-02-21T09:45:00;9;;;3.2;;
12721;SDS011;6425;50.316;8.114;2024-02-21T09:48:06;9;;;3.2;;
12721;SDS011;6425;50.316;8.114;2024-02-21T09:51:02;9.1;;;3.3;;
12721;SDS011;6425;50.316;8.114;2024-02-21T09:54:00;13.6;;;4.1;;
12721;SDS011;6425;50.316;8.114;2024-02-21T09:57:00;13.6;;;4.1;;
12721;SDS011;6425;50.316;8.114;2024-02-21T10:00:00;10.8;;;4.9;;
12721;SDS011;6425;50.316;8.114;2024-02-21T10:03:00;10.8;;;4.9;;
12721;SDS011;6425;50.316;8.114;2024-02-21T10:06:00;11;;;4;;
12721;SDS011;6425;50.316;8.114;2024-02-21T10:09:00;11;;;4.3;;
12721;SDS011;6425;50.316;8.114;2024-02-21T10:12:07;11;;;4.3;;
12721;SDS011;6425;50.316;8.114;2024-02-21T10:15:00;9;;;3.9;;
12721;SDS011;6425;50.316;8.114;2024-02-21T10:18:00;9;;;3.9;;
12721;SDS011;6425;50.316;8.114;2024-02-21T10:21:01;7.9;;;3;;
12721;SDS011;6425;50.316;8.114;2024-02-21T10:24:00;11.3;;;4.2;;
12721;SDS011;6425;50.316;8.114;2024-02-21T10:27:01;11.3;;;4.2;;
12721;SDS011;6425;50.316;8.114;2024-02-21T10:30:00;9.2;;;3.3;;
12721;SDS011;6425;50.316;8.114;2024-02-21T10:33:00;9.2;;;3.3;;
12721;SDS011;6425;50.316;8.114;2024-02-21T10:36:08;10.6;;;3.9;;
12721;SDS011;6425;50.316;8.114;2024-02-21T10:39:00;11.1;;;3.9;;
12721;SDS011;6425;50.316;8.114;2024-02-21T10:42:01;11.1;;;3.9;;
12721;SDS011;6425;50.316;8.114;2024-02-21T10:45:00;8.6;;;4.4;;
12721;SDS011;6425;50.316;8.114;2024-02-21T10:48:01;8.6;;;4.4;;
12721;SDS011;6425;50.316;8.114;2024-02-21T10:51:01;7.2;;;3.9;;
12721;SDS011;6425;50.316;8.114;2024-02-21T10:54:02;9.4;;;3.7;;
12721;SDS011;6425;50.316;8.114;2024-02-21T10:57:00;9.4;;;3.7;;
12721;SDS011;6425;50.316;8.114;2024-02-21T11:00:00;8.6;;;4.2;;
12721;SDS011;6425;50.316;8.114;2024-02-21T11:03:00;8.6;;;4.2;;
12721;SDS011;6425;50.316;8.114;2024-02-21T11:06:00;11.5;;;4.6;;
12721;SDS011;6425;50.316;8.114;2024-02-21T11:09:00;7.7;;;4.4;;
12721;SDS011;6425;50.316;8.114;2024-02-21T11:12:01;7.7;;;4.4;;
12721;SDS011;6425;50.316;8.114;2024-02-21T11:15:03;7.4;;;4.1;;
12721;SDS011;6425;50.316;8.114;2024-02-21T11:18:00;7.4;;;4.1;;
12721;SDS011;6425;50.316;8.114;2024-02-21T11:21:00;7.4;;;3.6;;
12721;SDS011;6425;50.316;8.114;2024-02-21T11:24:00;9.7;;;4.8;;
12721;SDS011;6425;50.316;8.114;2024-02-21T11:27:08;9.7;;;4.8;;
12721;SDS011;6425;50.316;8.114;2024-02-21T11:30:00;7.3;;;4.1;;
12721;SDS011;6425;50.316;8.114;2024-02-21T11:33:00;7.3;;;4.1;;
12721;SDS011;6425;50.316;8.114;2024-02-21T11:36:00;7.7;;;4.2;;
12721;SDS011;6425;50.316;8.114;2024-02-21T11:39:03;8.2;;;3.6;;
12721;SDS011;6425;50.316;8.114;2024-02-21T11:42:00;8.2;;;3.6;;
12721;SDS011;6425;50.316;8.114;2024-02-21T11:45:00;7.4;;;4.1;;
12721;SDS011;6425;50.316;8.114;2024-02-21T11:48:00;7.4;;;4.1;;
12721;SDS011;6425;50.316;8.114;2024-02-21T11:51:00;8.6;;;4.8;;
12721;SDS011;6425;50.316;8.114;2024-02-21T11:54:00;8.1;;;3.9;;
12721;SDS011;6425;50.316;8.114;2024-02-21T11:57:00;8.1;;;3.9;;
12721;SDS011;6425;50.316;8.114;2024-02-21T12:00:09;7;;;4.8;;
12721;SDS011;6425;50.316;8.114;2024-02-21T12:03:00;7;;;4.8;;
12721;SDS011;6425;50.316;8.114;2024-02-21T12:06:00;9.1;;;5.2;;
12721;SDS011;6425;50.316;8.114;2024-02-21T12:09:00;10.6;;;4.7;;
12721;SDS011;6425;50.316;8.114;2024-02-21T12:12:00;10.6;;;4.7;;
12721;SDS011;6425;50.316;8.114;2024-02-21T12:15:00;7;;;5.1;;
12721;SDS011;6425;50.316;8.114;2024-02-21T12:18:00;7;;;5.1;;
12721;SDS011;6425;50.316;8.114;2024-02-21T12:21:00;8.8;;;5.4;;
12721;SDS011;6425;50.316;8.114;2024-02-21T12:24:00;6.9;;;5.4;;
12721;SDS011;6425;50.316;8.114;2024-02-21T12:27:00;6.9;;;5.4;;
12721;SDS011;6425;50.316;8.114;2024-02-21T12:30:00;6.7;;;4.9;;
12721;SDS011;6425;50.316;8.114;2024-02-21T12:33:00;6.7;;;4.9;;
12721;SDS011;6425;50.316;8.114;2024-02-21T12:36:00;7.1;;;5.1;;
12721;SDS011;6425;50.316;8.114;2024-02-21T12:39:00;6.5;;;4.7;;
12721;SDS011;6425;50.316;8.114;2024-02-21T12:42:00;6.5;;;4.7;;
12721;SDS011;6425;50.316;8.114;2024-02-21T12:45:00;6.8;;;4.2;;
12721;SDS011;6425;50.316;8.114;2024-02-21T12:48:00;7.1;;;4.4;;
12721;SDS011;6425;50.316;8.114;2024-02-21T12:51:00;7.4;;;4.7;;
12721;SDS011;6425;50.316;8.114;2024-02-21T12:54:01;8.9;;;5.4;;
12721;SDS011;6425;50.316;8.114;2024-02-21T12:57:00;8.9;;;5.4;;
12721;SDS011;6425;50.316;8.114;2024-02-21T13:00:00;7.7;;;4.7;;
12721;SDS011;6425;50.316;8.114;2024-02-21T13:03:00;6.4;;;5.1;;
12721;SDS011;6425;50.316;8.114;2024-02-21T13:06:01;6.4;;;5.1;;
12721;SDS011;6425;50.316;8.114;2024-02-21T13:09:00;9.1;;;6.3;;
12721;SDS011;6425;50.316;8.114;2024-02-21T13:12:00;9.1;;;6.3;;
12721;SDS011;6425;50.316;8.114;2024-02-21T13:15:00;8.4;;;5.4;;
12721;SDS011;6425;50.316;8.114;2024-02-21T13:18:00;10.2;;;7.2;;
12721;SDS011;6425;50.316;8.114;2024-02-21T13:21:00;10.2;;;7.2;;
12721;SDS011;6425;50.316;8.114;2024-02-21T13:24:00;10.9;;;7.2;;
12721;SDS011;6425;50.316;8.114;2024-02-21T13:27:00;10.9;;;7.2;;
12721;SDS011;6425;50.316;8.114;2024-02-21T13:30:00;11.4;;;7.3;;
12721;SDS011;6425;50.316;8.114;2024-02-21T13:33:00;14.7;;;7.7;;
12721;SDS011;6425;50.316;8.114;2024-02-21T13:36:00;14.7;;;7.7;;
12721;SDS011;6425;50.316;8.114;2024-02-21T13:39:00;12.4;;;6.7;;
12721;SDS011;6425;50.316;8.114;2024-02-21T13:42:00;12.4;;;6.7;;
12721;SDS011;6425;50.316;8.114;2024-02-21T13:45:00;11.3;;;7.1;;
12721;SDS011;6425;50.316;8.114;2024-02-21T13:48:00;10.7;;;7.8;;
12721;SDS011;6425;50.316;8.114;2024-02-21T13:51:00;10.7;;;7.8;;
12721;SDS011;6425;50.316;8.114;2024-02-21T13:54:00;8.1;;;7.2;;
12721;SDS011;6425;50.316;8.114;2024-02-21T13:57:00;8.1;;;7.2;;
12721;SDS011;6425;50.316;8.114;2024-02-21T14:00:00;7.6;;;6.6;;
12721;SDS011;6425;50.316;8.114;2024-02-21T14:03:00;12.2;;;7.4;;
12721;SDS011;6425;50.316;8.114;2024-02-21T14:06:00;12.2;;;7.4;;
12721;SDS011;6425;50.316;8.114;2024-02-21T14:09:00;11.1;;;7.2;;
12721;SDS011;6425;50.316;8.114;2024-02-21T14:12:00;11.1;;;7.2;;
12721;SDS011;6425;50.316;8.114;2024-02-21T14:15:00;11.8;;;7.7;;
12721;SDS011;6425;50.316;8.114;2024-02-21T14:18:00;10.5;;;7.4;;
12721;SDS011;6425;50.316;8.114;2024-02-21T14:21:00;10.5;;;7.4;;
12721;SDS011;6425;50.316;8.114;2024-02-21T14:24:00;8.3;;;6.8;;
12721;SDS011;6425;50.316;8.114;2024-02-21T14:27:00;8.3;;;6.8;;
12721;SDS011;6425;50.316;8.114;2024-02-21T14:30:00;8.9;;;6.3;;
12721;SDS011;6425;50.316;8.114;2024-02-21T14:33:00;11.1;;;6.9;;
12721;SDS011;6425;50.316;8.114;2024-02-21T14:36:00;11.1;;;6.9;;
12721;SDS011;6425;50.316;8.114;2024-02-21T14:39:00;11;;;6.4;;
12721;SDS011;6425;50.316;8.114;2024-02-21T14:42:01;11;;;6.4;;
12721;SDS011;6425;50.316;8.114;2024-02-21T14:45:00;11.9;;;5.9;;
12721;SDS011;6425;50.316;8.114;2024-02-21T14:48:00;10.1;;;6.2;;
12721;SDS011;6425;50.316;8.114;2024-02-21T14:51:00;10.1;;;6.2;;
12721;SDS011;6425;50.316;8.114;2024-02-21T14:54:00;10.5;;;6.6;;
12721;SDS011;6425;50.316;8.114;2024-02-21T14:57:00;10.5;;;6.6;;
12721;SDS011;6425;50.316;8.114;2024-02-21T15:00:00;7.9;;;5.7;;
12721;SDS011;6425;50.316;8.114;2024-02-21T15:03:00;10.8;;;6.4;;
12721;SDS011;6425;50.316;8.114;2024-02-21T15:06:00;10.8;;;6.4;;
12721;SDS011;6425;50.316;8.114;2024-02-21T15:09:00;9.3;;;6.6;;
12721;SDS011;6425;50.316;8.114;2024-02-21T15:12:00;9.3;;;6.6;;
12721;SDS011;6425;50.316;8.114;2024-02-21T15:15:00;11;;;6.2;;
12721;SDS011;6425;50.316;8.114;2024-02-21T15:18:00;7.5;;;6.2;;
12721;SDS011;6425;50.316;8.114;2024-02-21T15:21:00;7.5;;;6.2;;
12721;SDS011;6425;50.316;8.114;2024-02-21T15:24:00;10.6;;;5.8;;
12721;SDS011;6425;50.316;8.114;2024-02-21T15:27:00;10.6;;;5.8;;
12721;SDS011;6425;50.316;8.114;2024-02-21T15:30:01;10.4;;;6;;
12721;SDS011;6425;50.316;8.114;2024-02-21T15:33:00;9;;;5.8;;
12721;SDS011;6425;50.316;8.114;2024-02-21T15:36:00;9;;;5.8;;
12721;SDS011;6425;50.316;8.114;2024-02-21T15:39:00;8;;;5.3;;
12721;SDS011;6425;50.316;8.114;2024-02-21T15:42:00;8;;;5.3;;
12721;SDS011;6425;50.316;8.114;2024-02-21T15:45:00;11.8;;;5.8;;
12721;SDS011;6425;50.316;8.114;2024-02-21T15:48:00;8.8;;;5.5;;
12721;SDS011;6425;50.316;8.114;2024-02-21T15:51:00;8.8;;;5.5;;
12721;SDS011;6425;50.316;8.114;2024-02-21T15:54:00;7.1;;;5.6;;
12721;SDS011;6425;50.316;8.114;2024-02-21T15:57:00;7.1;;;5.6;;
12721;SDS011;6425;50.316;8.114;2024-02-21T16:00:00;8.8;;;5.6;;
12721;SDS011;6425;50.316;8.114;2024-02-21T16:03:00;8.4;;;5.1;;
12721;SDS011;6425;50.316;8.114;2024-02-21T16:06:00;8.4;;;5.1;;
12721;SDS011;6425;50.316;8.114;2024-02-21T16:09:00;7.7;;;5.4;;
12721;SDS011;6425;50.316;8.114;2024-02-21T16:12:00;7.7;;;5.4;;
12721;SDS011;6425;50.316;8.114;2024-02-21T16:15:00;10.9;;;5.6;;
12721;SDS011;6425;50.316;8.114;2024-02-21T16:18:00;7.4;;;4.3;;
12721;SDS011;6425;50.316;8.114;2024-02-21T16:21:00;7.4;;;4.3;;
12721;SDS011;6425;50.316;8.114;2024-02-21T16:24:00;6.8;;;4.3;;
12721;SDS011;6425;50.316;8.114;2024-02-21T16:27:00;7.6;;;4.4;;
12721;SDS011;6425;50.316;8.114;2024-02-21T16:30:00;7.6;;;4.4;;
12721;SDS011;6425;50.316;8.114;2024-02-21T16:33:00;5.9;;;4.9;;
12721;SDS011;6425;50.316;8.114;2024-02-21T16:36:00;5.9;;;4.9;;
12721;SDS011;6425;50.316;8.114;2024-02-21T16:39:00;7.8;;;4.8;;
12721;SDS011;6425;50.316;8.114;2024-02-21T16:42:00;6.2;;;3.1;;
12721;SDS011;6425;50.316;8.114;2024-02-21T16:45:00;6.2;;;3.1;;
12721;SDS011;6425;50.316;8.114;2024-02-21T16:48:00;7.2;;;4.4;;
12721;SDS011;6425;50.316;8.114;2024-02-21T16:51:00;7.2;;;4.4;;
12721;SDS011;6425;50.316;8.114;2024-02-21T16:54:00;5.4;;;4.8;;
12721;SDS011;6425;50.316;8.114;2024-02-21T16:57:00;6.9;;;5.5;;
12721;SDS011;6425;50.316;8.114;2024-02-21T17:00:00;6.9;;;5.5;;
12721;SDS011;6425;50.316;8.114;2024-02-21T17:03:00;5.9;;;4.7;;
12721;SDS011;6425;50.316;8.114;2024-02-21T17:06:00;5.9;;;4.7;;
12721;SDS011;6425;50.316;8.114;2024-02-21T17:09:00;7.6;;;5.7;;
12721;SDS011;6425;50.316;8.114;2024-02-21T17:12:00;6;;;4.5;;
12721;SDS011;6425;50.316;8.114;2024-02-21T17:15:00;6;;;4.5;;
12721;SDS011;6425;50.316;8.114;2024-02-21T17:18:00;6.2;;;4.1;;
12721;SDS011;6425;50.316;8.114;2024-02-21T17:21:00;6.2;;;4.1;;
12721;SDS011;6425;50.316;8.114;2024-02-21T17:24:00;8;;;4.8;;
12721;SDS011;6425;50.316;8.114;2024-02-21T17:27:00;5.8;;;4.2;;
12721;SDS011;6425;50.316;8.114;2024-02-21T17:30:00;5.8;;;4.2;;
12721;SDS011;6425;50.316;8.114;2024-02-21T17:33:00;9.2;;;6.1;;
12721;SDS011;6425;50.316;8.114;2024-02-21T17:36:00;9.2;;;6.1;;
12721;SDS011;6425;50.316;8.114;2024-02-21T17:39:00;8.2;;;3.8;;
12721;SDS011;6425;50.316;8.114;2024-02-21T17:42:00;5.4;;;4.4;;
12721;SDS011;6425;50.316;8.114;2024-02-21T17:45:00;5.4;;;4.4;;
12721;SDS011;6425;50.316;8.114;2024-02-21T17:48:00;7.3;;;4.7;;
12721;SDS011;6425;50.316;8.114;2024-02-21T17:51:00;7.3;;;4.7;;
12721;SDS011;6425;50.316;8.114;2024-02-21T17:54:00;6;;;4.3;;
12721;SDS011;6425;50.316;8.114;2024-02-21T17:57:00;5.7;;;3.9;;
12721;SDS011;6425;50.316;8.114;2024-02-21T18:00:00;5.7;;;3.9;;
12721;SDS011;6425;50.316;8.114;2024-02-21T18:03:00;6.8;;;4.6;;
12721;SDS011;6425;50.316;8.114;2024-02-21T18:06:00;6.8;;;4.6;;
12721;SDS011;6425;50.316;8.114;2024-02-21T18:09:00;7.8;;;4.9;;
12721;SDS011;6425;50.316;8.114;2024-02-21T18:12:00;9.3;;;5.6;;
12721;SDS011;6425;50.316;8.114;2024-02-21T18:15:00;9.3;;;5.6;;
12721;SDS011;6425;50.316;8.114;2024-02-21T18:18:00;5.7;;;4.7;;
12721;SDS011;6425;50.316;8.114;2024-02-21T18:21:00;5.7;;;4.7;;
12721;SDS011;6425;50.316;8.114;2024-02-21T18:24:00;8.2;;;5.6;;
12721;SDS011;6425;50.316;8.114;2024-02-21T18:27:00;7;;;4.1;;
12721;SDS011;6425;50.316;8.114;2024-02-21T18:30:00;7;;;4.1;;
12721;SDS011;6425;50.316;8.114;2024-02-21T18:33:00;6;;;4;;
12721;SDS011;6425;50.316;8.114;2024-02-21T18:36:00;6;;;4;;
12721;SDS011;6425;50.316;8.114;2024-02-21T18:39:00;6.4;;;4.3;;
12721;SDS011;6425;50.316;8.114;2024-02-21T18:42:00;12.3;;;8.5;;
12721;SDS011;6425;50.316;8.114;2024-02-21T18:45:00;12.3;;;8.5;;
12721;SDS011;6425;50.316;8.114;2024-02-21T18:48:00;11.5;;;8;;
12721;SDS011;6425;50.316;8.114;2024-02-21T18:51:00;11.5;;;8;;